sensor_id;sensor_type;location;lat;lon;timestamp;temperature;humidity
9215;DHT22;4642;51.364;6.788;2023-01-05T00:01:45;12.20;99.90
9215;DHT22;4642;51.364;6.788;2023-01-05T00:04:11;12.20;99.90
9215;DHT22;4642;51.364;6.788;2023-01-05T00:06:37;12.20;99.90
9215;DHT22;4642;51.364;6.788;2023-01-05T00:09:05;12.10;99.90
9215;DHT22;4642;51.364;6.788;2023-01-05T00:11:30;12.10;99.90
9215;DHT22;4642;51.364;6.788;2023-01-05T00:14:17;12.10;99.90
9215;DHT22;4642;51.364;6.788;2023-01-05T00:17:02;12.10;99.90
9215;DHT22;4642;51.364;6.788;2023-01-05T00:19:46;12.10;99.90
9215;DHT22;4642;51.364;6.788;2023-01-05T00:22:37;12.10;99.90
9215;DHT22;4642;51.364;6.788;2023-01-05T00:25:15;12.10;99.90
9215;DHT22;4642;51.364;6.788;2023-01-05T00:27:42;12.00;99.90
9215;DHT22;4642;51.364;6.788;2023-01-05T00:30:10;12.00;99.90
9215;DHT22;4642;51.364;6.788;2023-01-05T00:32:36;12.00;99.90
9215;DHT22;4642;51.364;6.788;2023-01-05T00:35:01;12.00;99.90
9215;DHT22;4642;51.364;6.788;2023-01-05T00:37:31;11.90;99.90
9215;DHT22;4642;51.364;6.788;2023-01-05T00:39:56;12.00;99.90
9215;DHT22;4642;51.364;6.788;2023-01-05T00:42:22;12.00;99.90
9215;DHT22;4642;51.364;6.788;2023-01-05T00:44:48;11.90;99.90
9215;DHT22;4642;51.364;6.788;2023-01-05T00:47:13;11.90;99.90
9215;DHT22;4642;51.364;6.788;2023-01-05T00:49:39;11.90;99.90
9215;DHT22;4642;51.364;6.788;2023-01-05T00:52:05;11.90;99.90
9215;DHT22;4642;51.364;6.788;2023-01-05T00:54:30;11.90;99.90
9215;DHT22;4642;51.364;6.788;2023-01-05T00:56:56;11.90;99.90
9215;DHT22;4642;51.364;6.788;2023-01-05T00:59:22;11.90;99.90
9215;DHT22;4642;51.364;6.788;2023-01-05T01:01:48;11.90;99.90
9215;DHT22;4642;51.364;6.788;2023-01-05T01:04:15;11.90;99.90
9215;DHT22;4642;51.364;6.788;2023-01-05T01:06:40;11.80;99.90
9215;DHT22;4642;51.364;6.788;2023-01-05T01:09:06;11.80;99.90
9215;DHT22;4642;51.364;6.788;2023-01-05T01:11:32;11.80;99.90
9215;DHT22;4642;51.364;6.788;2023-01-05T01:13:58;11.80;99.90
9215;DHT22;4642;51.364;6.788;2023-01-05T01:16:23;11.70;99.90
9215;DHT22;4642;51.364;6.788;2023-01-05T01:18:49;11.80;99.90
9215;DHT22;4642;51.364;6.788;2023-01-05T01:21:15;11.80;99.90
9215;DHT22;4642;51.364;6.788;2023-01-05T01:23:41;11.80;99.90
9215;DHT22;4642;51.364;6.788;2023-01-05T01:26:08;11.80;99.90
9215;DHT22;4642;51.364;6.788;2023-01-05T01:28:34;11.80;99.90
9215;DHT22;4642;51.364;6.788;2023-01-05T01:31:00;11.70;99.90
9215;DHT22;4642;51.364;6.788;2023-01-05T01:33:27;11.70;99.90
9215;DHT22;4642;51.364;6.788;2023-01-05T01:35:53;11.70;99.90
9215;DHT22;4642;51.364;6.788;2023-01-05T01:38:19;11.70;99.90
9215;DHT22;4642;51.364;6.788;2023-01-05T01:40:46;11.70;99.90
9215;DHT22;4642;51.364;6.788;2023-01-05T01:46:01;11.70;99.90
9215;DHT22;4642;51.364;6.788;2023-01-05T01:48:26;11.60;99.90
9215;DHT22;4642;51.364;6.788;2023-01-05T01:50:53;11.70;99.90
9215;DHT22;4642;51.364;6.788;2023-01-05T01:55:47;11.60;99.90
9215;DHT22;4642;51.364;6.788;2023-01-05T01:58:16;11.70;99.90
9215;DHT22;4642;51.364;6.788;2023-01-05T02:00:44;11.60;99.90
9215;DHT22;4642;51.364;6.788;2023-01-05T02:03:11;11.70;99.90
9215;DHT22;4642;51.364;6.788;2023-01-05T02:05:36;11.60;99.90
9215;DHT22;4642;51.364;6.788;2023-01-05T02:08:03;11.60;99.90
9215;DHT22;4642;51.364;6.788;2023-01-05T02:10:56;11.60;99.90
9215;DHT22;4642;51.364;6.788;2023-01-05T02:13:47;11.50;99.90
9215;DHT22;4642;51.364;6.788;2023-01-05T02:16:23;11.60;99.90
9215;DHT22;4642;51.364;6.788;2023-01-05T02:22:00;11.50;99.90
9215;DHT22;4642;51.364;6.788;2023-01-05T02:33:39;11.50;99.90
9215;DHT22;4642;51.364;6.788;2023-01-05T02:44:28;11.40;99.90
9215;DHT22;4642;51.364;6.788;2023-01-05T02:47:31;11.50;99.90
9215;DHT22;4642;51.364;6.788;2023-01-05T02:50:12;11.50;99.90
9215;DHT22;4642;51.364;6.788;2023-01-05T02:55:13;11.50;99.90
9215;DHT22;4642;51.364;6.788;2023-01-05T02:57:46;11.50;99.90
9215;DHT22;4642;51.364;6.788;2023-01-05T03:00:22;11.40;99.90
9215;DHT22;4642;51.364;6.788;2023-01-05T03:02:52;11.40;99.90
9215;DHT22;4642;51.364;6.788;2023-01-05T03:05:26;11.40;99.90
9215;DHT22;4642;51.364;6.788;2023-01-05T03:07:54;11.40;99.90
9215;DHT22;4642;51.364;6.788;2023-01-05T03:10:38;11.40;99.90
9215;DHT22;4642;51.364;6.788;2023-01-05T03:13:26;11.30;99.90
9215;DHT22;4642;51.364;6.788;2023-01-05T03:16:12;11.30;99.90
9215;DHT22;4642;51.364;6.788;2023-01-05T03:18:40;11.30;99.90
9215;DHT22;4642;51.364;6.788;2023-01-05T03:21:26;11.30;99.90
9215;DHT22;4642;51.364;6.788;2023-01-05T03:23:55;11.30;99.90
9215;DHT22;4642;51.364;6.788;2023-01-05T03:26:40;11.30;99.90
9215;DHT22;4642;51.364;6.788;2023-01-05T03:29:26;11.30;99.90
9215;DHT22;4642;51.364;6.788;2023-01-05T03:32:22;11.50;99.90
9215;DHT22;4642;51.364;6.788;2023-01-05T03:35:19;11.40;99.90
9215;DHT22;4642;51.364;6.788;2023-01-05T03:40:56;11.40;99.90
9215;DHT22;4642;51.364;6.788;2023-01-05T03:43:22;11.40;99.90
9215;DHT22;4642;51.364;6.788;2023-01-05T03:45:55;11.40;99.90
9215;DHT22;4642;51.364;6.788;2023-01-05T03:48:22;11.30;99.90
9215;DHT22;4642;51.364;6.788;2023-01-05T03:50:48;11.20;99.90
9215;DHT22;4642;51.364;6.788;2023-01-05T03:53:14;11.20;99.90
9215;DHT22;4642;51.364;6.788;2023-01-05T03:55:39;11.20;99.90
9215;DHT22;4642;51.364;6.788;2023-01-05T03:58:05;11.10;99.90
9215;DHT22;4642;51.364;6.788;2023-01-05T04:00:31;11.10;99.90
9215;DHT22;4642;51.364;6.788;2023-01-05T04:02:57;11.10;99.90
9215;DHT22;4642;51.364;6.788;2023-01-05T04:05:23;11.10;99.90
9215;DHT22;4642;51.364;6.788;2023-01-05T04:07:49;11.10;99.90
9215;DHT22;4642;51.364;6.788;2023-01-05T04:10:14;11.00;99.90
9215;DHT22;4642;51.364;6.788;2023-01-05T04:12:40;11.00;99.90
9215;DHT22;4642;51.364;6.788;2023-01-05T04:15:06;11.10;99.90
9215;DHT22;4642;51.364;6.788;2023-01-05T04:17:31;11.10;99.90
9215;DHT22;4642;51.364;6.788;2023-01-05T04:19:57;11.30;99.90
9215;DHT22;4642;51.364;6.788;2023-01-05T04:22:22;11.00;99.90
9215;DHT22;4642;51.364;6.788;2023-01-05T04:24:48;11.50;99.90
9215;DHT22;4642;51.364;6.788;2023-01-05T04:27:14;11.00;99.90
9215;DHT22;4642;51.364;6.788;2023-01-05T04:29:39;11.00;99.90
9215;DHT22;4642;51.364;6.788;2023-01-05T04:32:05;11.00;99.90
9215;DHT22;4642;51.364;6.788;2023-01-05T04:34:30;10.90;99.90
9215;DHT22;4642;51.364;6.788;2023-01-05T04:36:56;10.90;99.90
9215;DHT22;4642;51.364;6.788;2023-01-05T04:39:21;10.80;99.90
9215;DHT22;4642;51.364;6.788;2023-01-05T04:41:47;10.80;99.90
9215;DHT22;4642;51.364;6.788;2023-01-05T04:44:13;10.70;99.90
9215;DHT22;4642;51.364;6.788;2023-01-05T04:46:39;10.70;99.90
9215;DHT22;4642;51.364;6.788;2023-01-05T04:49:05;10.70;99.90
9215;DHT22;4642;51.364;6.788;2023-01-05T04:51:30;10.70;99.90
9215;DHT22;4642;51.364;6.788;2023-01-05T04:53:56;10.60;99.90
9215;DHT22;4642;51.364;6.788;2023-01-05T04:56:21;10.60;99.90
9215;DHT22;4642;51.364;6.788;2023-01-05T04:58:47;10.60;99.90
9215;DHT22;4642;51.364;6.788;2023-01-05T05:01:13;10.50;99.90
9215;DHT22;4642;51.364;6.788;2023-01-05T05:03:38;10.50;99.90
9215;DHT22;4642;51.364;6.788;2023-01-05T05:06:04;10.50;99.90
9215;DHT22;4642;51.364;6.788;2023-01-05T05:08:30;10.60;99.90
9215;DHT22;4642;51.364;6.788;2023-01-05T05:10:55;10.60;99.90
9215;DHT22;4642;51.364;6.788;2023-01-05T05:13:21;10.60;99.90
9215;DHT22;4642;51.364;6.788;2023-01-05T05:15:47;10.70;99.90
9215;DHT22;4642;51.364;6.788;2023-01-05T05:18:12;10.60;99.90
9215;DHT22;4642;51.364;6.788;2023-01-05T05:20:41;10.60;99.90
9215;DHT22;4642;51.364;6.788;2023-01-05T05:23:07;10.70;99.90
9215;DHT22;4642;51.364;6.788;2023-01-05T05:25:33;10.70;99.90
9215;DHT22;4642;51.364;6.788;2023-01-05T05:27:58;10.70;99.90
9215;DHT22;4642;51.364;6.788;2023-01-05T05:30:24;10.70;99.90
9215;DHT22;4642;51.364;6.788;2023-01-05T05:32:49;10.70;99.90
9215;DHT22;4642;51.364;6.788;2023-01-05T05:35:15;10.70;99.90
9215;DHT22;4642;51.364;6.788;2023-01-05T05:37:40;10.70;99.90
9215;DHT22;4642;51.364;6.788;2023-01-05T05:40:06;10.70;99.90
9215;DHT22;4642;51.364;6.788;2023-01-05T05:42:32;10.70;99.90
9215;DHT22;4642;51.364;6.788;2023-01-05T05:44:58;10.70;99.90
9215;DHT22;4642;51.364;6.788;2023-01-05T05:47:23;10.60;99.90
9215;DHT22;4642;51.364;6.788;2023-01-05T05:49:49;10.60;99.90
9215;DHT22;4642;51.364;6.788;2023-01-05T05:52:14;10.60;99.90
9215;DHT22;4642;51.364;6.788;2023-01-05T05:54:40;10.60;99.90
9215;DHT22;4642;51.364;6.788;2023-01-05T05:57:05;10.60;99.90
9215;DHT22;4642;51.364;6.788;2023-01-05T05:59:31;10.60;99.90
9215;DHT22;4642;51.364;6.788;2023-01-05T06:01:56;10.60;99.90
9215;DHT22;4642;51.364;6.788;2023-01-05T06:04:22;10.60;99.90
9215;DHT22;4642;51.364;6.788;2023-01-05T06:06:47;10.60;99.90
9215;DHT22;4642;51.364;6.788;2023-01-05T06:09:13;10.60;99.90
9215;DHT22;4642;51.364;6.788;2023-01-05T06:11:38;10.50;99.90
9215;DHT22;4642;51.364;6.788;2023-01-05T06:14:04;10.50;99.90
9215;DHT22;4642;51.364;6.788;2023-01-05T06:16:30;10.50;99.90
9215;DHT22;4642;51.364;6.788;2023-01-05T06:18:56;10.30;99.90
9215;DHT22;4642;51.364;6.788;2023-01-05T06:21:22;10.40;99.90
9215;DHT22;4642;51.364;6.788;2023-01-05T06:23:47;10.40;99.90
9215;DHT22;4642;51.364;6.788;2023-01-05T06:26:13;10.30;99.90
9215;DHT22;4642;51.364;6.788;2023-01-05T06:28:38;10.40;99.90
9215;DHT22;4642;51.364;6.788;2023-01-05T06:31:04;10.30;99.90
9215;DHT22;4642;51.364;6.788;2023-01-05T06:33:30;10.30;99.90
9215;DHT22;4642;51.364;6.788;2023-01-05T06:35:55;10.30;99.90
9215;DHT22;4642;51.364;6.788;2023-01-05T06:38:23;10.30;99.90
9215;DHT22;4642;51.364;6.788;2023-01-05T06:40:49;10.30;99.90
9215;DHT22;4642;51.364;6.788;2023-01-05T06:43:14;10.30;99.90
9215;DHT22;4642;51.364;6.788;2023-01-05T06:45:40;10.30;99.90
9215;DHT22;4642;51.364;6.788;2023-01-05T06:48:06;10.20;99.90
9215;DHT22;4642;51.364;6.788;2023-01-05T06:50:31;10.20;99.90
9215;DHT22;4642;51.364;6.788;2023-01-05T06:52:57;10.20;99.90
9215;DHT22;4642;51.364;6.788;2023-01-05T06:55:23;10.30;99.90
9215;DHT22;4642;51.364;6.788;2023-01-05T06:57:49;10.20;99.90
9215;DHT22;4642;51.364;6.788;2023-01-05T07:00:15;10.20;99.90
9215;DHT22;4642;51.364;6.788;2023-01-05T07:02:41;10.30;99.90
9215;DHT22;4642;51.364;6.788;2023-01-05T07:05:07;10.20;99.90
9215;DHT22;4642;51.364;6.788;2023-01-05T07:07:32;10.20;99.90
9215;DHT22;4642;51.364;6.788;2023-01-05T07:09:58;10.20;99.90
9215;DHT22;4642;51.364;6.788;2023-01-05T07:12:24;10.20;99.90
9215;DHT22;4642;51.364;6.788;2023-01-05T07:14:50;10.20;99.90
9215;DHT22;4642;51.364;6.788;2023-01-05T07:17:15;10.20;99.90
9215;DHT22;4642;51.364;6.788;2023-01-05T07:19:41;10.20;99.90
9215;DHT22;4642;51.364;6.788;2023-01-05T07:22:06;10.20;99.90
9215;DHT22;4642;51.364;6.788;2023-01-05T07:24:32;10.20;99.90
9215;DHT22;4642;51.364;6.788;2023-01-05T07:26:58;10.20;99.90
9215;DHT22;4642;51.364;6.788;2023-01-05T07:29:24;10.20;99.90
9215;DHT22;4642;51.364;6.788;2023-01-05T07:31:50;10.20;99.90
9215;DHT22;4642;51.364;6.788;2023-01-05T07:34:20;10.20;99.90
9215;DHT22;4642;51.364;6.788;2023-01-05T07:36:46;10.30;99.90
9215;DHT22;4642;51.364;6.788;2023-01-05T07:39:12;10.30;99.90
9215;DHT22;4642;51.364;6.788;2023-01-05T07:41:38;10.40;99.90
9215;DHT22;4642;51.364;6.788;2023-01-05T07:44:03;10.40;99.90
9215;DHT22;4642;51.364;6.788;2023-01-05T07:46:29;10.40;99.90
9215;DHT22;4642;51.364;6.788;2023-01-05T07:48:55;10.40;99.90
9215;DHT22;4642;51.364;6.788;2023-01-05T07:51:20;10.30;99.90
9215;DHT22;4642;51.364;6.788;2023-01-05T07:53:46;10.40;99.90
9215;DHT22;4642;51.364;6.788;2023-01-05T07:56:13;10.40;99.90
9215;DHT22;4642;51.364;6.788;2023-01-05T07:58:39;10.30;99.90
9215;DHT22;4642;51.364;6.788;2023-01-05T08:01:07;10.30;99.90
9215;DHT22;4642;51.364;6.788;2023-01-05T08:03:33;10.40;99.90
9215;DHT22;4642;51.364;6.788;2023-01-05T08:06:03;10.40;99.90
9215;DHT22;4642;51.364;6.788;2023-01-05T08:08:29;10.40;99.90
9215;DHT22;4642;51.364;6.788;2023-01-05T08:10:55;10.40;99.90
9215;DHT22;4642;51.364;6.788;2023-01-05T08:13:20;10.40;99.90
9215;DHT22;4642;51.364;6.788;2023-01-05T08:16:04;10.40;99.90
9215;DHT22;4642;51.364;6.788;2023-01-05T08:18:30;10.40;99.90
9215;DHT22;4642;51.364;6.788;2023-01-05T08:20:58;10.40;99.90
9215;DHT22;4642;51.364;6.788;2023-01-05T08:23:25;10.40;99.90
9215;DHT22;4642;51.364;6.788;2023-01-05T08:25:50;10.40;99.90
9215;DHT22;4642;51.364;6.788;2023-01-05T08:28:16;10.40;99.90
9215;DHT22;4642;51.364;6.788;2023-01-05T08:30:42;10.50;99.90
9215;DHT22;4642;51.364;6.788;2023-01-05T08:33:08;10.40;99.90
9215;DHT22;4642;51.364;6.788;2023-01-05T08:35:33;10.40;99.90
9215;DHT22;4642;51.364;6.788;2023-01-05T08:37:59;10.40;99.90
9215;DHT22;4642;51.364;6.788;2023-01-05T08:40:24;10.50;99.90
9215;DHT22;4642;51.364;6.788;2023-01-05T08:42:50;10.50;99.90
9215;DHT22;4642;51.364;6.788;2023-01-05T08:45:16;10.50;99.90
9215;DHT22;4642;51.364;6.788;2023-01-05T08:47:42;10.50;99.90
9215;DHT22;4642;51.364;6.788;2023-01-05T08:50:09;10.50;99.90
9215;DHT22;4642;51.364;6.788;2023-01-05T08:52:36;10.60;99.90
9215;DHT22;4642;51.364;6.788;2023-01-05T08:55:02;10.60;99.90
9215;DHT22;4642;51.364;6.788;2023-01-05T08:57:29;10.40;99.90
9215;DHT22;4642;51.364;6.788;2023-01-05T08:59:55;10.50;99.90
9215;DHT22;4642;51.364;6.788;2023-01-05T09:02:20;10.50;99.90
9215;DHT22;4642;51.364;6.788;2023-01-05T09:04:46;10.50;99.90
9215;DHT22;4642;51.364;6.788;2023-01-05T09:07:12;10.50;99.90
9215;DHT22;4642;51.364;6.788;2023-01-05T09:09:38;10.50;99.90
9215;DHT22;4642;51.364;6.788;2023-01-05T09:12:03;10.50;99.90
9215;DHT22;4642;51.364;6.788;2023-01-05T09:14:29;10.50;99.90
9215;DHT22;4642;51.364;6.788;2023-01-05T09:16:55;10.60;99.90
9215;DHT22;4642;51.364;6.788;2023-01-05T09:19:20;10.60;99.90
9215;DHT22;4642;51.364;6.788;2023-01-05T09:21:46;10.60;99.90
9215;DHT22;4642;51.364;6.788;2023-01-05T09:24:11;10.60;99.90
9215;DHT22;4642;51.364;6.788;2023-01-05T09:26:37;10.60;99.90
9215;DHT22;4642;51.364;6.788;2023-01-05T09:29:03;10.60;99.90
9215;DHT22;4642;51.364;6.788;2023-01-05T09:31:28;10.60;99.90
9215;DHT22;4642;51.364;6.788;2023-01-05T09:33:56;10.60;99.90
9215;DHT22;4642;51.364;6.788;2023-01-05T09:36:22;10.60;99.90
9215;DHT22;4642;51.364;6.788;2023-01-05T09:38:49;10.70;99.90
9215;DHT22;4642;51.364;6.788;2023-01-05T09:41:26;10.70;99.90
9215;DHT22;4642;51.364;6.788;2023-01-05T09:43:57;10.70;99.90
9215;DHT22;4642;51.364;6.788;2023-01-05T09:46:29;10.70;99.90
9215;DHT22;4642;51.364;6.788;2023-01-05T09:48:59;10.70;99.90
9215;DHT22;4642;51.364;6.788;2023-01-05T09:51:26;10.70;99.90
9215;DHT22;4642;51.364;6.788;2023-01-05T09:53:53;10.80;99.90
9215;DHT22;4642;51.364;6.788;2023-01-05T09:56:27;10.80;99.90
9215;DHT22;4642;51.364;6.788;2023-01-05T10:01:50;10.80;99.90
9215;DHT22;4642;51.364;6.788;2023-01-05T10:04:24;10.90;99.90
9215;DHT22;4642;51.364;6.788;2023-01-05T10:07:02;10.90;99.90
9215;DHT22;4642;51.364;6.788;2023-01-05T10:09:35;10.90;99.90
9215;DHT22;4642;51.364;6.788;2023-01-05T10:14:59;10.90;99.90
9215;DHT22;4642;51.364;6.788;2023-01-05T10:17:28;11.00;99.90
9215;DHT22;4642;51.364;6.788;2023-01-05T10:19:56;11.00;99.90
9215;DHT22;4642;51.364;6.788;2023-01-05T10:23:06;11.00;99.90
9215;DHT22;4642;51.364;6.788;2023-01-05T10:25:37;11.00;99.90
9215;DHT22;4642;51.364;6.788;2023-01-05T10:28:19;11.00;99.90
9215;DHT22;4642;51.364;6.788;2023-01-05T10:31:06;11.00;99.90
9215;DHT22;4642;51.364;6.788;2023-01-05T10:33:51;11.00;99.90
9215;DHT22;4642;51.364;6.788;2023-01-05T10:36:58;11.00;99.90
9215;DHT22;4642;51.364;6.788;2023-01-05T10:42:31;11.00;99.90
9215;DHT22;4642;51.364;6.788;2023-01-05T10:45:01;11.10;99.90
9215;DHT22;4642;51.364;6.788;2023-01-05T10:47:30;11.00;99.90
9215;DHT22;4642;51.364;6.788;2023-01-05T10:49:57;11.00;99.90
9215;DHT22;4642;51.364;6.788;2023-01-05T10:52:23;11.10;99.90
9215;DHT22;4642;51.364;6.788;2023-01-05T10:54:59;11.10;99.90
9215;DHT22;4642;51.364;6.788;2023-01-05T11:00:19;11.10;99.90
9215;DHT22;4642;51.364;6.788;2023-01-05T11:02:51;11.20;99.90
9215;DHT22;4642;51.364;6.788;2023-01-05T11:05:36;11.20;99.90
9215;DHT22;4642;51.364;6.788;2023-01-05T11:08:05;11.20;99.90
9215;DHT22;4642;51.364;6.788;2023-01-05T11:10:32;11.20;99.90
9215;DHT22;4642;51.364;6.788;2023-01-05T11:13:23;11.20;99.90
9215;DHT22;4642;51.364;6.788;2023-01-05T11:18:56;11.20;99.90
9215;DHT22;4642;51.364;6.788;2023-01-05T11:21:25;11.30;99.90
9215;DHT22;4642;51.364;6.788;2023-01-05T11:23:58;11.30;99.90
9215;DHT22;4642;51.364;6.788;2023-01-05T11:26:29;11.30;99.90
9215;DHT22;4642;51.364;6.788;2023-01-05T11:31:45;11.30;99.90
9215;DHT22;4642;51.364;6.788;2023-01-05T11:34:18;11.30;99.90
9215;DHT22;4642;51.364;6.788;2023-01-05T11:36:57;11.30;99.90
9215;DHT22;4642;51.364;6.788;2023-01-05T11:44:56;11.30;99.90
9215;DHT22;4642;51.364;6.788;2023-01-05T11:47:37;11.30;99.90
9215;DHT22;4642;51.364;6.788;2023-01-05T11:50:17;11.30;99.90
9215;DHT22;4642;51.364;6.788;2023-01-05T11:52:48;11.30;99.90
9215;DHT22;4642;51.364;6.788;2023-01-05T11:55:36;11.30;99.90
9215;DHT22;4642;51.364;6.788;2023-01-05T11:58:23;11.30;99.90
9215;DHT22;4642;51.364;6.788;2023-01-05T12:06:51;11.30;99.90
9215;DHT22;4642;51.364;6.788;2023-01-05T12:09:31;11.30;99.90
9215;DHT22;4642;51.364;6.788;2023-01-05T12:14:58;11.30;99.90
9215;DHT22;4642;51.364;6.788;2023-01-05T12:20:09;11.30;99.90
9215;DHT22;4642;51.364;6.788;2023-01-05T12:26:00;11.30;99.90
9215;DHT22;4642;51.364;6.788;2023-01-05T12:31:26;11.30;99.90
9215;DHT22;4642;51.364;6.788;2023-01-05T12:34:05;11.30;99.90
9215;DHT22;4642;51.364;6.788;2023-01-05T12:36:51;11.20;99.90
9215;DHT22;4642;51.364;6.788;2023-01-05T12:44:53;11.30;99.90
9215;DHT22;4642;51.364;6.788;2023-01-05T12:48:57;11.40;99.90
9215;DHT22;4642;51.364;6.788;2023-01-05T12:51:06;11.40;99.90
9215;DHT22;4642;51.364;6.788;2023-01-05T12:56:59;11.50;99.90
9215;DHT22;4642;51.364;6.788;2023-01-05T12:59:28;11.50;99.90
9215;DHT22;4642;51.364;6.788;2023-01-05T13:04:48;11.60;99.90
9215;DHT22;4642;51.364;6.788;2023-01-05T13:12:59;11.60;99.90
9215;DHT22;4642;51.364;6.788;2023-01-05T13:15:34;11.50;99.90
9215;DHT22;4642;51.364;6.788;2023-01-05T13:18:04;11.50;99.90
9215;DHT22;4642;51.364;6.788;2023-01-05T13:20:35;11.50;99.90
9215;DHT22;4642;51.364;6.788;2023-01-05T13:23:13;11.50;99.90
9215;DHT22;4642;51.364;6.788;2023-01-05T13:26:04;11.40;99.90
9215;DHT22;4642;51.364;6.788;2023-01-05T13:28:30;11.40;99.90
9215;DHT22;4642;51.364;6.788;2023-01-05T13:40:06;11.40;99.90
9215;DHT22;4642;51.364;6.788;2023-01-05T13:56:53;11.80;99.90
9215;DHT22;4642;51.364;6.788;2023-01-05T13:59:31;11.80;99.90
9215;DHT22;4642;51.364;6.788;2023-01-05T14:01:58;11.80;99.90
9215;DHT22;4642;51.364;6.788;2023-01-05T14:04:32;11.80;99.90
9215;DHT22;4642;51.364;6.788;2023-01-05T14:07:05;11.70;99.90
9215;DHT22;4642;51.364;6.788;2023-01-05T14:09:55;11.70;99.90
9215;DHT22;4642;51.364;6.788;2023-01-05T14:12:41;11.60;99.90
9215;DHT22;4642;51.364;6.788;2023-01-05T14:17:53;11.60;99.90
9215;DHT22;4642;51.364;6.788;2023-01-05T14:20:46;11.60;99.90
9215;DHT22;4642;51.364;6.788;2023-01-05T14:36:25;11.60;99.90
9215;DHT22;4642;51.364;6.788;2023-01-05T14:38:53;11.60;99.90
9215;DHT22;4642;51.364;6.788;2023-01-05T14:41:21;11.60;99.90
9215;DHT22;4642;51.364;6.788;2023-01-05T14:43:56;11.50;99.90
9215;DHT22;4642;51.364;6.788;2023-01-05T14:46:23;11.50;99.90
9215;DHT22;4642;51.364;6.788;2023-01-05T14:49:05;11.50;99.90
9215;DHT22;4642;51.364;6.788;2023-01-05T14:51:32;11.50;99.90
9215;DHT22;4642;51.364;6.788;2023-01-05T14:54:01;11.50;99.90
9215;DHT22;4642;51.364;6.788;2023-01-05T14:56:31;11.40;99.90
9215;DHT22;4642;51.364;6.788;2023-01-05T14:59:19;11.40;99.90
9215;DHT22;4642;51.364;6.788;2023-01-05T15:01:51;11.40;99.90
9215;DHT22;4642;51.364;6.788;2023-01-05T15:04:31;11.30;99.90
9215;DHT22;4642;51.364;6.788;2023-01-05T15:07:27;11.30;99.90
9215;DHT22;4642;51.364;6.788;2023-01-05T15:10:49;11.30;99.90
9215;DHT22;4642;51.364;6.788;2023-01-05T15:35:34;11.10;99.90
9215;DHT22;4642;51.364;6.788;2023-01-05T15:38:22;11.00;99.90
9215;DHT22;4642;51.364;6.788;2023-01-05T15:40:50;11.10;99.90
9215;DHT22;4642;51.364;6.788;2023-01-05T15:43:17;11.00;99.90
9215;DHT22;4642;51.364;6.788;2023-01-05T15:45:48;11.00;99.90
9215;DHT22;4642;51.364;6.788;2023-01-05T15:48:31;11.00;99.90
9215;DHT22;4642;51.364;6.788;2023-01-05T15:50:59;10.90;99.90
9215;DHT22;4642;51.364;6.788;2023-01-05T15:53:35;10.90;99.90
9215;DHT22;4642;51.364;6.788;2023-01-05T15:56:03;10.80;99.90
9215;DHT22;4642;51.364;6.788;2023-01-05T15:58:32;10.80;99.90
9215;DHT22;4642;51.364;6.788;2023-01-05T16:01:13;10.80;99.90
9215;DHT22;4642;51.364;6.788;2023-01-05T16:03:41;10.80;99.90
9215;DHT22;4642;51.364;6.788;2023-01-05T16:06:26;10.80;99.90
9215;DHT22;4642;51.364;6.788;2023-01-05T16:08:55;10.70;99.90
9215;DHT22;4642;51.364;6.788;2023-01-05T16:11:36;10.70;99.90
9215;DHT22;4642;51.364;6.788;2023-01-05T16:14:14;10.70;99.90
9215;DHT22;4642;51.364;6.788;2023-01-05T16:16:47;10.70;99.90
9215;DHT22;4642;51.364;6.788;2023-01-05T16:19:22;10.70;99.90
9215;DHT22;4642;51.364;6.788;2023-01-05T16:24:56;10.70;99.90
9215;DHT22;4642;51.364;6.788;2023-01-05T16:27:22;10.70;99.90
9215;DHT22;4642;51.364;6.788;2023-01-05T16:29:48;10.60;99.90
9215;DHT22;4642;51.364;6.788;2023-01-05T16:32:34;10.60;99.90
9215;DHT22;4642;51.364;6.788;2023-01-05T16:35:39;10.60;99.90
9215;DHT22;4642;51.364;6.788;2023-01-05T16:48:50;10.50;99.90
9215;DHT22;4642;51.364;6.788;2023-01-05T16:53:55;10.50;99.90
9215;DHT22;4642;51.364;6.788;2023-01-05T16:56:54;10.50;99.90
9215;DHT22;4642;51.364;6.788;2023-01-05T17:01:58;10.50;99.90
9215;DHT22;4642;51.364;6.788;2023-01-05T17:04:24;10.40;99.90
9215;DHT22;4642;51.364;6.788;2023-01-05T17:06:50;10.40;99.90
9215;DHT22;4642;51.364;6.788;2023-01-05T17:09:22;10.40;99.90
9215;DHT22;4642;51.364;6.788;2023-01-05T17:11:48;10.40;99.90
9215;DHT22;4642;51.364;6.788;2023-01-05T17:14:16;10.40;99.90
9215;DHT22;4642;51.364;6.788;2023-01-05T17:16:42;10.40;99.90
9215;DHT22;4642;51.364;6.788;2023-01-05T17:19:14;10.40;99.90
9215;DHT22;4642;51.364;6.788;2023-01-05T17:21:42;10.40;99.90
9215;DHT22;4642;51.364;6.788;2023-01-05T17:24:10;10.40;99.90
9215;DHT22;4642;51.364;6.788;2023-01-05T17:26:39;10.30;99.90
9215;DHT22;4642;51.364;6.788;2023-01-05T17:29:06;10.30;99.90
9215;DHT22;4642;51.364;6.788;2023-01-05T17:31:33;10.30;99.90
9215;DHT22;4642;51.364;6.788;2023-01-05T17:33:58;10.40;99.90
9215;DHT22;4642;51.364;6.788;2023-01-05T17:36:27;10.30;99.90
9215;DHT22;4642;51.364;6.788;2023-01-05T17:38:54;10.30;99.90
9215;DHT22;4642;51.364;6.788;2023-01-05T17:41:19;10.30;99.90
9215;DHT22;4642;51.364;6.788;2023-01-05T17:43:45;10.30;99.90
9215;DHT22;4642;51.364;6.788;2023-01-05T17:46:24;10.30;99.90
9215;DHT22;4642;51.364;6.788;2023-01-05T17:48:53;10.30;99.90
9215;DHT22;4642;51.364;6.788;2023-01-05T17:51:19;10.30;99.90
9215;DHT22;4642;51.364;6.788;2023-01-05T17:53:44;10.30;99.90
9215;DHT22;4642;51.364;6.788;2023-01-05T17:56:10;10.40;99.90
9215;DHT22;4642;51.364;6.788;2023-01-05T17:58:35;10.40;99.90
9215;DHT22;4642;51.364;6.788;2023-01-05T18:01:02;10.40;99.90
9215;DHT22;4642;51.364;6.788;2023-01-05T18:03:28;10.40;99.90
9215;DHT22;4642;51.364;6.788;2023-01-05T18:05:53;10.30;99.90
9215;DHT22;4642;51.364;6.788;2023-01-05T18:08:20;10.30;99.90
9215;DHT22;4642;51.364;6.788;2023-01-05T18:10:45;10.30;99.90
9215;DHT22;4642;51.364;6.788;2023-01-05T18:13:12;10.30;99.90
9215;DHT22;4642;51.364;6.788;2023-01-05T18:15:42;10.30;99.90
9215;DHT22;4642;51.364;6.788;2023-01-05T18:18:08;10.30;99.90
9215;DHT22;4642;51.364;6.788;2023-01-05T18:20:34;10.30;99.90
9215;DHT22;4642;51.364;6.788;2023-01-05T18:23:00;10.20;99.90
9215;DHT22;4642;51.364;6.788;2023-01-05T18:25:25;10.30;99.90
9215;DHT22;4642;51.364;6.788;2023-01-05T18:27:51;10.20;99.90
9215;DHT22;4642;51.364;6.788;2023-01-05T18:30:17;10.20;99.90
9215;DHT22;4642;51.364;6.788;2023-01-05T18:32:43;10.20;99.90
9215;DHT22;4642;51.364;6.788;2023-01-05T18:35:09;10.20;99.90
9215;DHT22;4642;51.364;6.788;2023-01-05T18:37:34;10.20;99.90
9215;DHT22;4642;51.364;6.788;2023-01-05T18:40:00;10.20;99.90
9215;DHT22;4642;51.364;6.788;2023-01-05T18:42:25;10.20;99.90
9215;DHT22;4642;51.364;6.788;2023-01-05T18:44:51;10.20;99.90
9215;DHT22;4642;51.364;6.788;2023-01-05T18:47:17;10.20;99.90
9215;DHT22;4642;51.364;6.788;2023-01-05T18:49:43;10.20;99.90
9215;DHT22;4642;51.364;6.788;2023-01-05T18:52:09;10.20;99.90
9215;DHT22;4642;51.364;6.788;2023-01-05T18:54:34;10.20;99.90
9215;DHT22;4642;51.364;6.788;2023-01-05T18:57:00;10.20;99.90
9215;DHT22;4642;51.364;6.788;2023-01-05T18:59:25;10.20;99.90
9215;DHT22;4642;51.364;6.788;2023-01-05T19:01:51;10.30;99.90
9215;DHT22;4642;51.364;6.788;2023-01-05T19:04:16;10.30;99.90
9215;DHT22;4642;51.364;6.788;2023-01-05T19:06:42;10.30;99.90
9215;DHT22;4642;51.364;6.788;2023-01-05T19:09:09;10.30;99.90
9215;DHT22;4642;51.364;6.788;2023-01-05T19:11:36;10.30;99.90